createdAt,value
2023-01-15T00:00:09.696Z,974.31
2023-01-15T00:00:20.163Z,974.31
2023-01-15T00:00:30.682Z,974.31
2023-01-15T00:00:41.182Z,974.31
2023-01-15T00:00:51.696Z,974.30
2023-01-15T00:01:02.268Z,974.29
2023-01-15T00:01:12.738Z,974.29
2023-01-15T00:01:23.324Z,974.28
2023-01-15T00:01:33.786Z,974.28
2023-01-15T00:01:44.270Z,974.26
2023-01-15T00:01:54.754Z,974.26
2023-01-15T00:02:05.274Z,974.25
2023-01-15T00:02:15.816Z,974.24
2023-01-15T00:02:26.312Z,974.23
2023-01-15T00:02:36.954Z,974.22
2023-01-15T00:02:47.378Z,974.22
2023-01-15T00:02:57.856Z,974.21
2023-01-15T00:03:08.331Z,974.20
2023-01-15T00:03:18.837Z,974.19
2023-01-15T00:03:29.378Z,974.19
2023-01-15T00:03:39.925Z,974.18
2023-01-15T00:03:50.478Z,974.18
2023-01-15T00:04:00.975Z,974.18
2023-01-15T00:04:11.404Z,974.16
2023-01-15T00:04:21.909Z,974.16
2023-01-15T00:04:32.444Z,974.16
2023-01-15T00:04:42.940Z,974.16
2023-01-15T00:04:53.443Z,974.16
2023-01-15T00:05:03.947Z,974.16
2023-01-15T00:05:14.463Z,974.16
2023-01-15T00:05:25.001Z,974.16
2023-01-15T00:05:35.478Z,974.16
2023-01-15T00:05:45.987Z,974.16
2023-01-15T00:05:56.494Z,974.16
2023-01-15T00:06:07.009Z,974.17
2023-01-15T00:06:17.519Z,974.18
2023-01-15T00:06:28.028Z,974.18
2023-01-15T00:06:38.556Z,974.19
2023-01-15T00:06:49.042Z,974.20
2023-01-15T00:06:59.558Z,974.20
2023-01-15T00:07:10.086Z,974.21
2023-01-15T00:07:20.587Z,974.22
2023-01-15T00:07:31.104Z,974.24
2023-01-15T00:07:41.609Z,974.26
2023-01-15T00:07:52.140Z,974.27
2023-01-15T00:08:02.639Z,974.29
2023-01-15T00:08:13.148Z,974.31
2023-01-15T00:08:23.650Z,974.32
2023-01-15T00:08:34.197Z,974.34
2023-01-15T00:08:44.680Z,974.35
2023-01-15T00:08:55.197Z,974.36
2023-01-15T00:09:05.692Z,974.36
2023-01-15T00:09:16.204Z,974.37
2023-01-15T00:09:26.714Z,974.36
2023-01-15T00:09:37.230Z,974.35
2023-01-15T00:09:47.767Z,974.34
2023-01-15T00:09:58.241Z,974.33
2023-01-15T00:10:08.800Z,974.31
2023-01-15T00:10:19.270Z,974.31
2023-01-15T00:10:29.773Z,974.30
2023-01-15T00:10:40.287Z,974.30
2023-01-15T00:10:50.823Z,974.30
2023-01-15T00:11:01.308Z,974.31
2023-01-15T00:11:11.814Z,974.31
2023-01-15T00:11:22.329Z,974.30
2023-01-15T00:11:32.855Z,974.30
2023-01-15T00:11:43.365Z,974.31
2023-01-15T00:11:53.860Z,974.32
2023-01-15T00:12:04.384Z,974.33
2023-01-15T00:12:14.903Z,974.33
2023-01-15T00:12:25.403Z,974.34
2023-01-15T00:12:35.926Z,974.35
2023-01-15T00:12:46.415Z,974.36
2023-01-15T00:12:56.916Z,974.37
2023-01-15T00:13:07.430Z,974.38
2023-01-15T00:13:17.940Z,974.39
2023-01-15T00:13:28.449Z,974.40
2023-01-15T00:13:38.952Z,974.41
2023-01-15T00:13:49.465Z,974.41
2023-01-15T00:13:59.972Z,974.42
2023-01-15T00:14:10.497Z,974.42
2023-01-15T00:14:21.019Z,974.41
2023-01-15T00:14:31.521Z,974.41
2023-01-15T00:14:42.037Z,974.39
2023-01-15T00:14:52.530Z,974.38
2023-01-15T00:15:03.032Z,974.37
2023-01-15T00:15:14.669Z,974.36
2023-01-15T00:15:24.053Z,974.35
2023-01-15T00:15:34.591Z,974.35
2023-01-15T00:15:45.085Z,974.35
2023-01-15T00:15:55.659Z,974.35
2023-01-15T00:16:06.170Z,974.35
2023-01-15T00:16:16.674Z,974.35
2023-01-15T00:16:27.112Z,974.34
2023-01-15T00:16:37.649Z,974.34
2023-01-15T00:16:48.129Z,974.33
2023-01-15T00:16:58.647Z,974.33
2023-01-15T00:17:09.185Z,974.33
2023-01-15T00:17:19.662Z,974.34
2023-01-15T00:17:30.165Z,974.34
2023-01-15T00:17:40.684Z,974.33
2023-01-15T00:17:51.196Z,974.31
2023-01-15T00:18:01.701Z,974.30
2023-01-15T00:18:12.205Z,974.31
2023-01-15T00:18:22.717Z,974.32
2023-01-15T00:18:33.235Z,974.34
2023-01-15T00:18:43.763Z,974.36
2023-01-15T00:18:54.244Z,974.37
2023-01-15T00:19:04.802Z,974.39
2023-01-15T00:19:15.284Z,974.39
2023-01-15T00:19:25.784Z,974.38
2023-01-15T00:19:36.303Z,974.42
2023-01-15T00:19:46.812Z,974.37
2023-01-15T00:19:57.319Z,974.36
2023-01-15T00:20:07.857Z,974.37
2023-01-15T00:20:18.336Z,974.37
2023-01-15T00:20:28.848Z,974.37
2023-01-15T00:20:39.351Z,974.43
2023-01-15T00:20:49.880Z,974.46
2023-01-15T00:21:00.382Z,974.50
2023-01-15T00:21:10.885Z,974.50
2023-01-15T00:21:21.412Z,974.50
2023-01-15T00:21:32.013Z,974.51
2023-01-15T00:21:42.416Z,974.51
2023-01-15T00:21:52.931Z,974.51
2023-01-15T00:22:03.451Z,974.49
2023-01-15T00:22:13.949Z,974.47
2023-01-15T00:22:24.467Z,974.45
2023-01-15T00:22:34.977Z,974.44
2023-01-15T00:22:45.491Z,974.45
2023-01-15T00:22:55.998Z,974.42
2023-01-15T00:23:06.529Z,974.44
2023-01-15T00:23:17.021Z,974.45
2023-01-15T00:23:27.527Z,974.46
2023-01-15T00:23:38.040Z,974.40
2023-01-15T00:23:48.545Z,974.42
2023-01-15T00:23:59.051Z,974.41
2023-01-15T00:24:09.566Z,974.39
2023-01-15T00:24:20.075Z,974.39
2023-01-15T00:24:30.582Z,974.41
2023-01-15T00:24:41.100Z,974.39
2023-01-15T00:24:51.603Z,974.41
2023-01-15T00:25:02.115Z,974.46
2023-01-15T00:25:12.621Z,974.48
2023-01-15T00:25:23.128Z,974.48
2023-01-15T00:25:33.636Z,974.47
2023-01-15T00:25:44.155Z,974.44
2023-01-15T00:25:54.656Z,974.46
2023-01-15T00:26:05.173Z,974.47
2023-01-15T00:26:15.679Z,974.48
2023-01-15T00:26:26.192Z,974.47
2023-01-15T00:26:36.691Z,974.51
2023-01-15T00:26:47.205Z,974.56
2023-01-15T00:26:57.725Z,974.55
2023-01-15T00:27:08.231Z,974.58
2023-01-15T00:27:18.737Z,974.54
2023-01-15T00:27:29.275Z,974.54
2023-01-15T00:27:39.757Z,974.50
2023-01-15T00:27:50.259Z,974.49
2023-01-15T00:28:01.827Z,974.54
2023-01-15T00:28:11.277Z,974.55
2023-01-15T00:28:21.790Z,974.54
2023-01-15T00:28:32.312Z,974.51
2023-01-15T00:28:42.810Z,974.54
2023-01-15T00:28:53.317Z,974.56
2023-01-15T00:29:03.823Z,974.50
2023-01-15T00:29:14.340Z,974.52
2023-01-15T00:29:24.837Z,974.45
2023-01-15T00:29:35.355Z,974.44
2023-01-15T00:29:45.860Z,974.48
2023-01-15T00:29:56.451Z,974.51
2023-01-15T00:30:06.892Z,974.51
2023-01-15T00:30:17.394Z,974.49
2023-01-15T00:30:27.891Z,974.47
2023-01-15T00:30:38.409Z,974.44
2023-01-15T00:30:48.913Z,974.48
2023-01-15T00:30:59.447Z,974.50
2023-01-15T00:31:10.004Z,974.53
2023-01-15T00:31:20.478Z,974.53
2023-01-15T00:31:30.984Z,974.51
2023-01-15T00:31:41.462Z,974.52
2023-01-15T00:31:51.968Z,974.54
2023-01-15T00:32:02.521Z,974.56
2023-01-15T00:32:12.993Z,974.50
2023-01-15T00:32:23.507Z,974.51
2023-01-15T00:32:34.044Z,974.49
2023-01-15T00:32:44.515Z,974.53
2023-01-15T00:32:55.027Z,974.49
2023-01-15T00:33:05.538Z,974.49
2023-01-15T00:33:16.052Z,974.50
2023-01-15T00:33:26.573Z,974.44
2023-01-15T00:33:37.079Z,974.50
2023-01-15T00:33:47.592Z,974.47
2023-01-15T00:33:58.101Z,974.40
2023-01-15T00:34:08.602Z,974.48
2023-01-15T00:34:19.120Z,974.44
2023-01-15T00:34:29.623Z,974.38
2023-01-15T00:34:40.133Z,974.43
2023-01-15T00:34:50.661Z,974.45
2023-01-15T00:35:01.155Z,974.43
2023-01-15T00:35:11.685Z,974.42
2023-01-15T00:35:22.188Z,974.49
2023-01-15T00:35:32.691Z,974.49
2023-01-15T00:35:43.193Z,974.52
2023-01-15T00:35:53.718Z,974.44
2023-01-15T00:36:04.215Z,974.46
2023-01-15T00:36:14.719Z,974.50
2023-01-15T00:36:25.238Z,974.49
2023-01-15T00:36:35.739Z,974.51
2023-01-15T00:36:46.259Z,974.43
2023-01-15T00:36:56.761Z,974.49
2023-01-15T00:37:07.280Z,974.51
2023-01-15T00:37:17.796Z,974.52
2023-01-15T00:37:28.290Z,974.53
2023-01-15T00:37:38.826Z,974.49
2023-01-15T00:37:49.308Z,974.49
2023-01-15T00:37:59.812Z,974.50
2023-01-15T00:38:10.326Z,974.51
2023-01-15T00:38:20.830Z,974.48
2023-01-15T00:38:31.349Z,974.51
2023-01-15T00:38:41.852Z,974.44
2023-01-15T00:38:52.360Z,974.48
2023-01-15T00:39:02.862Z,974.47
2023-01-15T00:39:13.384Z,974.49
2023-01-15T00:39:23.888Z,974.51
2023-01-15T00:39:34.392Z,974.49
2023-01-15T00:39:44.901Z,974.51
2023-01-15T00:39:55.412Z,974.49
2023-01-15T00:40:05.915Z,974.49
2023-01-15T00:40:16.418Z,974.50
2023-01-15T00:40:26.925Z,974.50
2023-01-15T00:40:37.447Z,974.50
2023-01-15T00:40:47.966Z,974.50
2023-01-15T00:40:58.502Z,974.46
2023-01-15T00:41:08.961Z,974.49
2023-01-15T00:41:19.491Z,974.51
2023-01-15T00:41:29.995Z,974.50
2023-01-15T00:41:40.488Z,974.48
2023-01-15T00:41:51.006Z,974.50
2023-01-15T00:42:01.543Z,974.50
2023-01-15T00:42:12.088Z,974.50
2023-01-15T00:42:22.537Z,974.50
2023-01-15T00:42:33.061Z,974.51
2023-01-15T00:42:45.032Z,974.50
2023-01-15T00:42:55.060Z,974.51
2023-01-15T00:43:04.570Z,974.50
2023-01-15T00:43:15.097Z,974.53
2023-01-15T00:43:25.598Z,974.54
2023-01-15T00:43:36.103Z,974.53
2023-01-15T00:43:46.634Z,974.53
2023-01-15T00:43:57.127Z,974.53
2023-01-15T00:44:07.631Z,974.52
2023-01-15T00:44:18.183Z,974.55
2023-01-15T00:44:28.661Z,974.52
2023-01-15T00:44:39.171Z,974.49
2023-01-15T00:44:49.668Z,974.55
2023-01-15T00:45:00.172Z,974.58
2023-01-15T00:45:10.689Z,974.60
2023-01-15T00:45:21.257Z,974.59
2023-01-15T00:45:31.708Z,974.52
2023-01-15T00:45:42.212Z,974.54
2023-01-15T00:45:52.734Z,974.58
2023-01-15T00:46:03.230Z,974.58
2023-01-15T00:46:13.778Z,974.57
2023-01-15T00:46:24.287Z,974.57
2023-01-15T00:46:34.799Z,974.58
2023-01-15T00:46:45.341Z,974.61
2023-01-15T00:46:55.778Z,974.59
2023-01-15T00:47:06.332Z,974.59
2023-01-15T00:47:16.817Z,974.54
2023-01-15T00:47:27.312Z,974.55
2023-01-15T00:47:37.825Z,974.53
2023-01-15T00:47:48.349Z,974.56
2023-01-15T00:47:58.847Z,974.58
2023-01-15T00:48:09.357Z,974.58
2023-01-15T00:48:19.869Z,974.59
2023-01-15T00:48:30.382Z,974.57
2023-01-15T00:48:40.889Z,974.57
2023-01-15T00:48:51.413Z,974.62
2023-01-15T00:49:01.911Z,974.61
2023-01-15T00:49:12.420Z,974.63
2023-01-15T00:49:22.930Z,974.67
2023-01-15T00:49:33.446Z,974.63
2023-01-15T00:49:43.947Z,974.67
2023-01-15T00:49:54.469Z,974.66
2023-01-15T00:50:04.967Z,974.66
2023-01-15T00:50:15.534Z,974.70
2023-01-15T00:50:25.990Z,974.74
2023-01-15T00:50:36.531Z,974.77
2023-01-15T00:50:47.005Z,974.68
2023-01-15T00:50:57.523Z,974.68
2023-01-15T00:51:08.026Z,974.71
2023-01-15T00:51:18.554Z,974.76
2023-01-15T00:51:29.053Z,974.65
2023-01-15T00:51:39.555Z,974.75
2023-01-15T00:51:50.215Z,974.69
2023-01-15T00:52:00.572Z,974.71
2023-01-15T00:52:11.080Z,974.70
2023-01-15T00:52:21.601Z,974.70
2023-01-15T00:52:32.096Z,974.71
2023-01-15T00:52:42.606Z,974.72
2023-01-15T00:52:53.126Z,974.70
2023-01-15T00:53:03.647Z,974.69
2023-01-15T00:53:14.137Z,974.68
2023-01-15T00:53:24.646Z,974.68
2023-01-15T00:53:35.162Z,974.73
2023-01-15T00:53:45.667Z,974.69
2023-01-15T00:53:56.170Z,974.68
2023-01-15T00:54:06.680Z,974.70
2023-01-15T00:54:17.207Z,974.64
2023-01-15T00:54:27.700Z,974.66
2023-01-15T00:54:38.219Z,974.64
2023-01-15T00:54:48.718Z,974.67
2023-01-15T00:54:59.230Z,974.70
2023-01-15T00:55:09.811Z,974.72
2023-01-15T00:55:20.252Z,974.70
2023-01-15T00:55:30.760Z,974.70
2023-01-15T00:55:41.263Z,974.71
2023-01-15T00:55:51.770Z,974.65
2023-01-15T00:56:02.297Z,974.65
2023-01-15T00:56:12.827Z,974.67
2023-01-15T00:56:23.294Z,974.65
2023-01-15T00:56:33.815Z,974.68
2023-01-15T00:56:44.317Z,974.63
2023-01-15T00:56:54.822Z,974.65
2023-01-15T00:57:05.349Z,974.66
2023-01-15T00:57:15.833Z,974.62
2023-01-15T00:57:26.343Z,974.70
2023-01-15T00:57:36.859Z,974.60
2023-01-15T00:57:47.369Z,974.57
2023-01-15T00:57:57.868Z,974.61
2023-01-15T00:58:08.381Z,974.64
2023-01-15T00:58:18.897Z,974.65
2023-01-15T00:58:29.404Z,974.65
2023-01-15T00:58:39.904Z,974.60
2023-01-15T00:58:50.417Z,974.65
2023-01-15T00:59:00.926Z,974.61
2023-01-15T00:59:11.427Z,974.60
2023-01-15T00:59:21.943Z,974.62
2023-01-15T00:59:32.461Z,974.60
2023-01-15T00:59:43.005Z,974.64
2023-01-15T00:59:53.516Z,974.65
2023-01-15T01:00:03.995Z,974.66
2023-01-15T01:00:14.497Z,974.64
2023-01-15T01:00:25.003Z,974.64
2023-01-15T01:00:35.545Z,974.67
2023-01-15T01:00:46.018Z,974.68
2023-01-15T01:00:56.719Z,974.70
2023-01-15T01:01:07.175Z,974.73
2023-01-15T01:01:17.743Z,974.75
2023-01-15T01:01:28.183Z,974.75
2023-01-15T01:01:38.786Z,974.76
2023-01-15T01:01:49.267Z,974.75
2023-01-15T01:01:59.787Z,974.78
2023-01-15T01:02:10.229Z,974.72
2023-01-15T01:02:20.655Z,974.79
2023-01-15T01:02:31.116Z,974.78
2023-01-15T01:02:41.675Z,974.80
2023-01-15T01:02:52.125Z,974.78
2023-01-15T01:03:02.641Z,974.80
2023-01-15T01:03:13.159Z,974.80
2023-01-15T01:03:23.662Z,974.81
2023-01-15T01:03:34.171Z,974.84
2023-01-15T01:03:44.685Z,974.82
2023-01-15T01:03:55.194Z,974.80
2023-01-15T01:04:05.692Z,974.85
2023-01-15T01:04:16.198Z,974.79
2023-01-15T01:04:26.713Z,974.81
2023-01-15T01:04:37.242Z,974.76
2023-01-15T01:04:47.736Z,974.84
2023-01-15T01:04:58.256Z,974.88
2023-01-15T01:05:08.738Z,974.82
2023-01-15T01:05:19.271Z,974.88
2023-01-15T01:05:29.758Z,974.85
2023-01-15T01:05:40.261Z,974.89
2023-01-15T01:05:50.776Z,974.88
2023-01-15T01:06:01.282Z,974.86
2023-01-15T01:06:11.785Z,974.87
2023-01-15T01:06:22.291Z,974.91
2023-01-15T01:06:32.804Z,974.90
2023-01-15T01:06:43.322Z,974.93
2023-01-15T01:06:53.824Z,974.92
2023-01-15T01:07:04.328Z,974.89
2023-01-15T01:07:14.840Z,974.93
2023-01-15T01:07:25.339Z,974.92
2023-01-15T01:07:35.845Z,974.92
2023-01-15T01:07:46.360Z,974.93
2023-01-15T01:07:56.863Z,974.94
2023-01-15T01:08:07.374Z,974.90
2023-01-15T01:08:17.881Z,974.93
2023-01-15T01:08:28.392Z,974.97
2023-01-15T01:08:38.892Z,974.91
2023-01-15T01:08:49.411Z,974.94
2023-01-15T01:08:59.964Z,974.90
2023-01-15T01:09:10.419Z,974.94
2023-01-15T01:09:20.925Z,974.95
2023-01-15T01:09:31.443Z,974.92
2023-01-15T01:09:41.944Z,974.97
2023-01-15T01:09:52.447Z,974.95
2023-01-15T01:10:02.958Z,975.02
2023-01-15T01:10:13.467Z,974.96
2023-01-15T01:10:23.978Z,974.99
2023-01-15T01:10:34.478Z,974.96
2023-01-15T01:10:44.984Z,974.98
2023-01-15T01:10:55.506Z,975.03
2023-01-15T01:11:06.000Z,975.02
2023-01-15T01:11:16.518Z,975.04
2023-01-15T01:11:27.080Z,975.03
2023-01-15T01:11:37.561Z,975.06
2023-01-15T01:11:48.032Z,975.05
2023-01-15T01:11:58.557Z,975.09
2023-01-15T01:12:09.055Z,975.08
2023-01-15T01:12:19.561Z,975.08
2023-01-15T01:12:30.074Z,975.06
2023-01-15T01:12:40.578Z,975.04
2023-01-15T01:12:51.083Z,975.06
2023-01-15T01:13:01.588Z,975.08
2023-01-15T01:13:12.104Z,975.05
2023-01-15T01:13:22.604Z,975.02
2023-01-15T01:13:33.115Z,975.11
2023-01-15T01:13:43.623Z,974.99
2023-01-15T01:13:54.124Z,975.04
2023-01-15T01:14:04.637Z,975.04
2023-01-15T01:14:15.192Z,975.11
2023-01-15T01:14:25.642Z,975.06
2023-01-15T01:14:36.154Z,975.01
2023-01-15T01:14:46.680Z,975.06
2023-01-15T01:14:57.170Z,975.04
2023-01-15T01:15:07.671Z,975.08
2023-01-15T01:15:18.195Z,975.09
2023-01-15T01:15:28.693Z,975.12
2023-01-15T01:15:39.197Z,975.14
2023-01-15T01:15:49.742Z,975.15
2023-01-15T01:16:00.249Z,975.12
2023-01-15T01:16:10.767Z,975.15
2023-01-15T01:16:21.260Z,975.17
2023-01-15T01:16:31.851Z,975.14
2023-01-15T01:16:42.236Z,975.19
2023-01-15T01:16:52.739Z,975.18
2023-01-15T01:17:03.238Z,975.19
2023-01-15T01:17:13.751Z,975.19
2023-01-15T01:17:24.267Z,975.20
2023-01-15T01:17:34.762Z,975.23
2023-01-15T01:17:45.271Z,975.18
2023-01-15T01:17:55.795Z,975.21
2023-01-15T01:18:06.296Z,975.18
2023-01-15T01:18:16.814Z,975.24
2023-01-15T01:18:27.311Z,975.24
2023-01-15T01:18:37.816Z,975.26
2023-01-15T01:18:48.319Z,975.25
2023-01-15T01:18:58.826Z,975.25
2023-01-15T01:19:09.333Z,975.27
2023-01-15T01:19:19.891Z,975.23
2023-01-15T01:19:30.350Z,975.23
2023-01-15T01:19:40.878Z,975.20
2023-01-15T01:19:51.377Z,975.21
2023-01-15T01:20:01.876Z,975.29
2023-01-15T01:20:12.384Z,975.29
2023-01-15T01:20:22.899Z,975.28
2023-01-15T01:20:33.401Z,975.26
2023-01-15T01:20:43.916Z,975.25
2023-01-15T01:20:54.414Z,975.27
2023-01-15T01:21:04.921Z,975.28
2023-01-15T01:21:15.432Z,975.30
2023-01-15T01:21:25.946Z,975.28
2023-01-15T01:21:36.481Z,975.29
2023-01-15T01:21:46.948Z,975.29
2023-01-15T01:21:57.479Z,975.30
2023-01-15T01:22:07.977Z,975.31
2023-01-15T01:22:18.479Z,975.31
2023-01-15T01:22:28.979Z,975.34
2023-01-15T01:22:39.493Z,975.32
2023-01-15T01:22:50.045Z,975.34
2023-01-15T01:23:00.499Z,975.35
2023-01-15T01:23:11.009Z,975.42
2023-01-15T01:23:21.511Z,975.39
2023-01-15T01:23:32.020Z,975.44
2023-01-15T01:23:42.528Z,975.37
2023-01-15T01:23:53.045Z,975.42
2023-01-15T01:24:03.562Z,975.41
2023-01-15T01:24:14.047Z,975.43
2023-01-15T01:24:24.556Z,975.46
2023-01-15T01:24:35.069Z,975.55
2023-01-15T01:24:45.567Z,975.49
2023-01-15T01:24:56.077Z,975.48
2023-01-15T01:25:06.585Z,975.52
2023-01-15T01:25:17.100Z,975.55
2023-01-15T01:25:27.604Z,975.55
2023-01-15T01:25:38.107Z,975.53
2023-01-15T01:25:48.629Z,975.55
2023-01-15T01:25:59.117Z,975.52
2023-01-15T01:26:09.621Z,975.52
2023-01-15T01:26:20.135Z,975.60
2023-01-15T01:26:30.639Z,975.56
2023-01-15T01:26:41.180Z,975.59
2023-01-15T01:26:54.213Z,975.68
2023-01-15T01:27:02.182Z,975.56
2023-01-15T01:27:12.684Z,975.52
2023-01-15T01:27:23.183Z,975.55
2023-01-15T01:27:33.689Z,975.59
2023-01-15T01:27:44.190Z,975.60
2023-01-15T01:27:54.699Z,975.61
2023-01-15T01:28:05.215Z,975.55
2023-01-15T01:28:15.714Z,975.58
2023-01-15T01:28:26.219Z,975.57
2023-01-15T01:28:36.725Z,975.55
2023-01-15T01:28:47.237Z,975.57
2023-01-15T01:28:57.731Z,975.57
2023-01-15T01:29:08.244Z,975.56
2023-01-15T01:29:18.775Z,975.55
2023-01-15T01:29:29.270Z,975.57
2023-01-15T01:29:39.764Z,975.52
2023-01-15T01:29:50.279Z,975.51
2023-01-15T01:30:00.775Z,975.51
2023-01-15T01:30:11.288Z,975.53
2023-01-15T01:30:21.798Z,975.56
2023-01-15T01:30:32.311Z,975.46
2023-01-15T01:30:42.820Z,975.53
2023-01-15T01:30:53.317Z,975.52
2023-01-15T01:31:03.920Z,975.55
2023-01-15T01:31:14.379Z,975.52
2023-01-15T01:31:24.905Z,975.58
2023-01-15T01:31:35.438Z,975.54
2023-01-15T01:31:45.975Z,975.56
2023-01-15T01:31:56.367Z,975.54
2023-01-15T01:32:06.904Z,975.54
2023-01-15T01:32:17.383Z,975.61
2023-01-15T01:32:27.880Z,975.55
2023-01-15T01:32:38.397Z,975.54
2023-01-15T01:32:48.931Z,975.60
2023-01-15T01:32:59.426Z,975.64
2023-01-15T01:33:09.918Z,975.62
2023-01-15T01:33:20.423Z,975.68
2023-01-15T01:33:30.930Z,975.59
2023-01-15T01:33:41.431Z,975.65
2023-01-15T01:33:51.937Z,975.65
2023-01-15T01:34:02.449Z,975.69
2023-01-15T01:34:12.968Z,975.77
2023-01-15T01:34:23.472Z,975.65
2023-01-15T01:34:33.974Z,975.69
2023-01-15T01:34:44.483Z,975.65
2023-01-15T01:34:54.987Z,975.69
2023-01-15T01:35:05.514Z,975.71
2023-01-15T01:35:15.998Z,975.72
2023-01-15T01:35:26.504Z,975.75
2023-01-15T01:35:37.012Z,975.73
2023-01-15T01:35:47.519Z,975.71
2023-01-15T01:35:58.020Z,975.65
2023-01-15T01:36:08.540Z,975.73
2023-01-15T01:36:19.046Z,975.70
2023-01-15T01:36:29.559Z,975.71
2023-01-15T01:36:40.062Z,975.76
2023-01-15T01:36:50.564Z,975.71
2023-01-15T01:37:01.126Z,975.74
2023-01-15T01:37:11.584Z,975.76
2023-01-15T01:37:22.072Z,975.74
2023-01-15T01:37:32.596Z,975.75
2023-01-15T01:37:43.094Z,975.75
2023-01-15T01:37:53.608Z,975.77
2023-01-15T01:38:04.126Z,975.78
2023-01-15T01:38:14.621Z,975.74
2023-01-15T01:38:25.181Z,975.78
2023-01-15T01:38:35.622Z,975.74
2023-01-15T01:38:46.132Z,975.77
2023-01-15T01:38:56.635Z,975.77
2023-01-15T01:39:07.135Z,975.75
2023-01-15T01:39:17.718Z,975.75
2023-01-15T01:39:28.148Z,975.76
2023-01-15T01:39:38.657Z,975.78
2023-01-15T01:39:49.168Z,975.79
2023-01-15T01:39:59.680Z,975.75
2023-01-15T01:40:10.187Z,975.75
2023-01-15T01:40:20.693Z,975.71
2023-01-15T01:40:31.195Z,975.75
2023-01-15T01:40:41.708Z,975.74
2023-01-15T01:40:52.214Z,975.79
2023-01-15T01:41:02.716Z,975.77
2023-01-15T01:41:13.219Z,975.78
2023-01-15T01:41:23.737Z,975.74
2023-01-15T01:41:34.249Z,975.75
2023-01-15T01:41:44.757Z,975.76
2023-01-15T01:41:55.262Z,975.78
2023-01-15T01:42:05.768Z,975.76
2023-01-15T01:42:16.297Z,975.77
2023-01-15T01:42:26.817Z,975.78
2023-01-15T01:42:37.289Z,975.80
2023-01-15T01:42:47.801Z,975.78
2023-01-15T01:42:58.309Z,975.83
2023-01-15T01:43:08.819Z,975.79
2023-01-15T01:43:19.327Z,975.81
2023-01-15T01:43:29.826Z,975.84
2023-01-15T01:43:40.344Z,975.82
2023-01-15T01:43:50.847Z,975.81
2023-01-15T01:44:01.356Z,975.87
2023-01-15T01:44:11.858Z,975.84
2023-01-15T01:44:22.364Z,975.82
2023-01-15T01:44:32.871Z,975.83
2023-01-15T01:44:43.372Z,975.84
2023-01-15T01:44:53.879Z,975.84
2023-01-15T01:45:04.398Z,975.82
2023-01-15T01:45:14.920Z,975.82
2023-01-15T01:45:25.492Z,975.83
2023-01-15T01:45:35.946Z,975.83
2023-01-15T01:45:46.460Z,975.83
2023-01-15T01:45:56.988Z,975.86
2023-01-15T01:46:07.475Z,975.85
2023-01-15T01:46:17.941Z,975.85
2023-01-15T01:46:28.443Z,975.86
2023-01-15T01:46:38.958Z,975.85
2023-01-15T01:46:49.461Z,975.88
2023-01-15T01:46:59.998Z,975.89
2023-01-15T01:47:10.473Z,975.89
2023-01-15T01:47:20.983Z,975.90
2023-01-15T01:47:31.511Z,975.91
2023-01-15T01:47:42.013Z,975.92
2023-01-15T01:47:52.501Z,975.96
2023-01-15T01:48:03.016Z,975.96
2023-01-15T01:48:13.525Z,975.95
2023-01-15T01:48:24.026Z,975.96
2023-01-15T01:48:34.555Z,975.94
2023-01-15T01:48:45.057Z,975.96
2023-01-15T01:48:55.543Z,975.95
2023-01-15T01:49:06.072Z,975.92
2023-01-15T01:49:16.580Z,975.93
2023-01-15T01:49:27.065Z,975.94
2023-01-15T01:49:37.594Z,975.90
2023-01-15T01:49:48.080Z,975.95
2023-01-15T01:49:58.590Z,975.97
2023-01-15T01:50:09.095Z,975.97
2023-01-15T01:50:19.594Z,975.94
2023-01-15T01:50:30.111Z,975.93
2023-01-15T01:50:40.612Z,975.88
2023-01-15T01:50:51.122Z,975.93
2023-01-15T01:51:01.627Z,975.92
2023-01-15T01:51:12.129Z,975.93
2023-01-15T01:51:22.639Z,975.90
2023-01-15T01:51:33.140Z,975.93
2023-01-15T01:51:43.652Z,975.91
2023-01-15T01:51:54.163Z,975.94
2023-01-15T01:52:04.659Z,975.98
2023-01-15T01:52:15.172Z,975.98
2023-01-15T01:52:25.680Z,975.97
2023-01-15T01:52:36.180Z,975.88
2023-01-15T01:52:46.686Z,975.98
2023-01-15T01:52:57.202Z,975.99
2023-01-15T01:53:07.699Z,975.95
2023-01-15T01:53:18.222Z,975.97
2023-01-15T01:53:28.712Z,975.98
2023-01-15T01:53:39.219Z,975.97
2023-01-15T01:53:49.736Z,976.01
2023-01-15T01:54:00.263Z,975.98
2023-01-15T01:54:10.736Z,975.99
2023-01-15T01:54:21.275Z,975.97
2023-01-15T01:54:31.753Z,975.98
2023-01-15T01:54:42.262Z,975.99
2023-01-15T01:54:52.773Z,975.98
2023-01-15T01:55:03.279Z,975.98
2023-01-15T01:55:13.775Z,975.99
2023-01-15T01:55:24.331Z,975.96
2023-01-15T01:55:34.789Z,975.99
2023-01-15T01:55:45.293Z,976.01
2023-01-15T01:55:55.800Z,975.92
2023-01-15T01:56:06.311Z,975.96
2023-01-15T01:56:16.819Z,975.96
2023-01-15T01:56:27.327Z,975.95
2023-01-15T01:56:37.834Z,975.96
2023-01-15T01:56:48.342Z,975.97
2023-01-15T01:56:58.855Z,975.92
2023-01-15T01:57:09.354Z,976.01
2023-01-15T01:57:19.863Z,975.97
2023-01-15T01:57:30.383Z,975.99
2023-01-15T01:57:40.877Z,975.97
2023-01-15T01:57:51.423Z,975.97
2023-01-15T01:58:01.898Z,975.98
2023-01-15T01:58:12.408Z,976.01
2023-01-15T01:58:22.900Z,976.01
2023-01-15T01:58:33.420Z,975.94
2023-01-15T01:58:43.916Z,976.00
2023-01-15T01:58:54.437Z,976.00
2023-01-15T01:59:04.930Z,975.98
2023-01-15T01:59:15.440Z,976.02
2023-01-15T01:59:25.937Z,976.03
2023-01-15T01:59:36.458Z,976.02
2023-01-15T01:59:46.972Z,976.06
2023-01-15T01:59:57.469Z,976.02
2023-01-15T02:00:07.966Z,976.02
2023-01-15T02:00:18.495Z,976.03
2023-01-15T02:00:28.983Z,976.00
2023-01-15T02:00:39.538Z,976.03
2023-01-15T02:00:50.051Z,976.01
2023-01-15T02:01:00.655Z,976.01
2023-01-15T02:01:11.114Z,976.04
2023-01-15T02:01:21.628Z,976.07
2023-01-15T02:01:32.116Z,976.06
2023-01-15T02:01:42.689Z,976.06
2023-01-15T02:01:53.218Z,976.06
2023-01-15T02:02:03.714Z,976.05
2023-01-15T02:02:14.205Z,976.08
2023-01-15T02:02:24.638Z,976.02
2023-01-15T02:02:35.109Z,976.10
2023-01-15T02:02:45.654Z,976.09
2023-01-15T02:02:56.072Z,976.08
2023-01-15T02:03:06.581Z,976.09
2023-01-15T02:03:17.120Z,976.07
2023-01-15T02:03:27.602Z,976.08
2023-01-15T02:03:38.121Z,976.11
2023-01-15T02:03:48.617Z,976.10
2023-01-15T02:03:59.134Z,976.08
2023-01-15T02:04:09.635Z,976.10
2023-01-15T02:04:20.148Z,976.12
2023-01-15T02:04:30.650Z,976.10
2023-01-15T02:04:41.157Z,976.12
2023-01-15T02:04:51.656Z,976.12
2023-01-15T02:05:02.169Z,976.15
2023-01-15T02:05:12.666Z,976.12
2023-01-15T02:05:23.181Z,976.13
2023-01-15T02:05:33.679Z,976.13
2023-01-15T02:05:44.194Z,976.12
2023-01-15T02:05:54.701Z,976.13
2023-01-15T02:06:05.208Z,976.14
2023-01-15T02:06:15.723Z,976.15
2023-01-15T02:06:26.231Z,976.15
2023-01-15T02:06:36.731Z,976.14
2023-01-15T02:06:47.242Z,976.17
2023-01-15T02:06:57.758Z,976.16
2023-01-15T02:07:08.245Z,976.17
2023-01-15T02:07:18.755Z,976.17
2023-01-15T02:07:29.255Z,976.16
2023-01-15T02:07:39.792Z,976.18
2023-01-15T02:07:50.275Z,976.16
2023-01-15T02:08:00.794Z,976.18
2023-01-15T02:08:11.294Z,976.19
2023-01-15T02:08:21.791Z,976.16
2023-01-15T02:08:32.314Z,976.20
2023-01-15T02:08:42.805Z,976.24
2023-01-15T02:08:53.307Z,976.19
2023-01-15T02:09:03.806Z,976.19
2023-01-15T02:09:14.349Z,976.18
2023-01-15T02:09:24.816Z,976.18
2023-01-15T02:09:35.329Z,976.18
2023-01-15T02:09:45.838Z,976.18
2023-01-15T02:09:56.342Z,976.20
2023-01-15T02:10:06.841Z,976.18
2023-01-15T02:10:17.351Z,976.20
2023-01-15T02:10:27.848Z,976.17
2023-01-15T02:10:38.370Z,976.20
2023-01-15T02:10:48.864Z,976.17
2023-01-15T02:10:59.380Z,976.17
2023-01-15T02:11:09.896Z,976.17